createdAt,value
2022-10-30T00:00:26.518Z,26.63
2022-10-30T00:03:30.073Z,25.20
2022-10-30T00:06:35.808Z,25.15
2022-10-30T00:09:39.121Z,25.98
2022-10-30T00:12:42.535Z,24.90
2022-10-30T00:15:49.837Z,25.23
2022-10-30T00:18:53.213Z,26.33
2022-10-30T00:25:00.314Z,26.92
2022-10-30T00:28:03.744Z,26.83
2022-10-30T00:31:07.703Z,28.77
2022-10-30T00:34:11.059Z,28.73
2022-10-30T00:37:15.756Z,27.73
2022-10-30T00:40:19.638Z,28.38
2022-10-30T00:43:31.384Z,29.50
2022-10-30T00:46:37.781Z,29.13
2022-10-30T00:49:51.165Z,28.23
2022-10-30T00:53:00.374Z,29.48
2022-10-30T00:56:07.293Z,29.60
2022-10-30T00:59:14.368Z,30.70
2022-10-30T01:02:20.823Z,30.38
2022-10-30T01:05:28.161Z,30.95
2022-10-30T01:08:33.159Z,31.80
2022-10-30T01:11:36.497Z,33.00
2022-10-30T01:14:44.589Z,36.25
2022-10-30T01:18:21.069Z,39.53
2022-10-30T01:21:43.734Z,36.10
2022-10-30T01:24:59.936Z,32.80
2022-10-30T01:28:17.397Z,32.55
2022-10-30T01:31:35.135Z,29.85
2022-10-30T01:34:46.960Z,31.40
2022-10-30T01:37:58.202Z,31.35
2022-10-30T01:41:03.108Z,32.95
2022-10-30T01:44:10.377Z,34.10
2022-10-30T01:47:24.025Z,32.40
2022-10-30T01:50:37.803Z,33.53
2022-10-30T01:53:52.931Z,36.28
2022-10-30T01:57:05.567Z,34.53
2022-10-30T02:07:24.193Z,37.03
2022-10-30T02:10:28.729Z,38.78
2022-10-30T02:13:33.997Z,38.45
2022-10-30T02:16:43.700Z,37.47
2022-10-30T02:19:46.899Z,28.87
2022-10-30T02:22:56.058Z,39.95
2022-10-30T02:26:07.345Z,39.60
2022-10-30T02:29:10.551Z,38.58
2022-10-30T02:32:13.703Z,38.60
2022-10-30T02:35:17.844Z,40.42
2022-10-30T02:38:22.555Z,40.08
2022-10-30T02:41:27.336Z,39.92
2022-10-30T02:44:30.689Z,41.17
2022-10-30T02:47:34.057Z,40.17
2022-10-30T02:50:37.534Z,40.22
2022-10-30T02:53:42.661Z,41.72
2022-10-30T02:56:47.076Z,42.65
2022-10-30T02:59:51.182Z,40.30
2022-10-30T03:02:57.229Z,40.22
2022-10-30T03:06:02.064Z,40.35
2022-10-30T03:09:06.819Z,39.88
2022-10-30T03:12:10.129Z,38.30
2022-10-30T03:15:13.403Z,39.05
2022-10-30T03:18:16.719Z,38.15
2022-10-30T03:21:21.919Z,40.55
2022-10-30T03:24:26.703Z,40.67
2022-10-30T03:27:30.667Z,43.05
2022-10-30T03:30:34.584Z,43.22
2022-10-30T03:33:39.000Z,42.40
2022-10-30T03:36:42.274Z,42.83
2022-10-30T03:39:47.459Z,43.88
2022-10-30T03:42:50.875Z,43.58
2022-10-30T03:45:55.802Z,42.75
2022-10-30T03:48:59.494Z,43.55
2022-10-30T03:52:02.712Z,42.05
2022-10-30T03:55:08.442Z,42.90
2022-10-30T03:58:14.504Z,41.75
2022-10-30T04:01:18.928Z,41.17
2022-10-30T04:04:26.242Z,40.13
2022-10-30T04:07:29.859Z,41.65
2022-10-30T04:10:35.127Z,40.05
2022-10-30T04:13:41.748Z,39.45
2022-10-30T04:16:45.113Z,38.47
2022-10-30T04:19:49.359Z,40.58
2022-10-30T04:22:57.409Z,40.72
2022-10-30T04:26:04.046Z,38.72
2022-10-30T04:29:08.747Z,37.55
2022-10-30T04:32:13.043Z,38.88
2022-10-30T04:35:18.652Z,36.03
2022-10-30T04:38:22.439Z,38.95
2022-10-30T04:41:27.944Z,37.47
2022-10-30T04:44:42.560Z,36.67
2022-10-30T04:47:52.714Z,36.47
2022-10-30T04:50:59.333Z,36.83
2022-10-30T04:54:06.703Z,37.85
2022-10-30T04:57:15.683Z,35.78
2022-10-30T05:00:20.371Z,34.88
2022-10-30T05:03:25.541Z,38.85
2022-10-30T05:06:31.095Z,39.17
2022-10-30T05:09:34.743Z,33.80
2022-10-30T05:12:39.511Z,37.97
2022-10-30T05:15:42.849Z,35.10
2022-10-30T05:18:46.100Z,34.05
2022-10-30T05:21:49.327Z,45.25
2022-10-30T05:24:52.490Z,39.08
2022-10-30T05:28:00.971Z,38.55
2022-10-30T05:31:04.696Z,38.28
2022-10-30T05:34:26.211Z,39.40
2022-10-30T05:37:30.266Z,39.67
2022-10-30T05:40:35.619Z,40.90
2022-10-30T05:43:40.415Z,40.55
2022-10-30T05:46:44.712Z,42.22
2022-10-30T05:49:57.672Z,42.60
2022-10-30T05:53:04.360Z,42.65
2022-10-30T05:56:07.840Z,40.90
2022-10-30T05:59:13.734Z,41.67
2022-10-30T06:02:18.652Z,41.85
2022-10-30T06:05:21.976Z,39.92
2022-10-30T06:08:25.690Z,41.85
2022-10-30T06:11:42.216Z,40.20
2022-10-30T06:14:48.849Z,40.35
2022-10-30T06:17:52.712Z,41.85
2022-10-30T06:21:17.102Z,42.67
2022-10-30T06:24:27.343Z,41.42
2022-10-30T06:27:54.651Z,40.22
2022-10-30T06:30:59.507Z,39.90
2022-10-30T06:34:06.462Z,41.40
2022-10-30T06:37:13.313Z,48.28
2022-10-30T06:40:17.086Z,54.40
2022-10-30T06:43:44.736Z,46.88
2022-10-30T06:46:58.821Z,45.95
2022-10-30T06:50:02.061Z,42.80
2022-10-30T06:53:06.815Z,54.70
2022-10-30T06:56:11.129Z,47.05
2022-10-30T06:59:34.506Z,50.08
2022-10-30T07:02:59.519Z,41.63
2022-10-30T07:06:04.029Z,40.78
2022-10-30T07:09:08.571Z,41.60
2022-10-30T07:12:11.930Z,42.55
2022-10-30T07:15:33.986Z,39.70
2022-10-30T07:19:00.651Z,38.85
2022-10-30T07:22:07.719Z,38.00
2022-10-30T07:25:13.350Z,37.88
2022-10-30T07:28:28.883Z,37.42
2022-10-30T07:32:02.152Z,37.47
2022-10-30T07:35:13.255Z,36.97
2022-10-30T07:38:34.485Z,36.67
2022-10-30T07:41:51.654Z,38.42
2022-10-30T07:45:13.392Z,37.53
2022-10-30T07:48:36.726Z,35.90
2022-10-30T07:51:45.281Z,34.28
2022-10-30T07:54:50.187Z,35.38
2022-10-30T07:58:12.076Z,35.00
2022-10-30T08:01:34.237Z,30.80
2022-10-30T08:05:04.431Z,22.60
2022-10-30T08:08:20.209Z,28.65
2022-10-30T08:11:29.976Z,29.17
2022-10-30T08:14:35.520Z,35.08
2022-10-30T08:17:43.671Z,32.33
2022-10-30T08:20:51.466Z,31.38
2022-10-30T08:23:57.191Z,29.80
2022-10-30T08:27:03.953Z,27.50
2022-10-30T08:30:08.490Z,26.63
2022-10-30T08:33:14.583Z,26.17
2022-10-30T08:36:33.031Z,25.80
2022-10-30T08:39:37.647Z,24.52
2022-10-30T08:42:59.601Z,22.80
2022-10-30T08:46:03.585Z,19.70
2022-10-30T08:49:07.070Z,18.73
2022-10-30T08:52:14.086Z,19.60
2022-10-30T08:55:18.978Z,17.88
2022-10-30T08:58:22.267Z,18.27
2022-10-30T09:01:25.805Z,15.98
2022-10-30T09:04:47.800Z,15.63
2022-10-30T09:08:11.094Z,17.10
2022-10-30T09:11:41.384Z,14.90
2022-10-30T09:14:44.616Z,13.70
2022-10-30T09:17:48.778Z,12.75
2022-10-30T09:20:52.539Z,11.68
2022-10-30T09:23:55.789Z,12.48
2022-10-30T09:27:12.262Z,9.75
2022-10-30T09:30:25.635Z,9.80
2022-10-30T09:33:31.661Z,8.77
2022-10-30T09:36:53.588Z,9.20
2022-10-30T09:39:57.232Z,7.68
2022-10-30T09:43:08.704Z,7.00
2022-10-30T09:46:29.204Z,9.13
2022-10-30T09:49:48.291Z,6.50
2022-10-30T09:53:02.199Z,7.03
2022-10-30T09:56:10.194Z,13.68
2022-10-30T09:59:28.767Z,7.78
2022-10-30T10:02:37.030Z,7.63
2022-10-30T10:05:45.385Z,7.10
2022-10-30T10:09:14.542Z,7.05
2022-10-30T10:12:44.705Z,8.23
2022-10-30T10:15:55.331Z,9.10
2022-10-30T10:19:07.104Z,7.60
2022-10-30T10:22:21.022Z,7.95
2022-10-30T10:25:26.178Z,10.10
2022-10-30T10:28:48.969Z,9.13
2022-10-30T10:32:08.238Z,8.45
2022-10-30T10:35:54.626Z,8.00
2022-10-30T10:39:18.197Z,7.60
2022-10-30T10:42:30.994Z,6.40
2022-10-30T10:45:42.324Z,7.47
2022-10-30T10:49:04.328Z,7.72
2022-10-30T10:52:11.708Z,7.65
2022-10-30T10:55:19.649Z,6.53
2022-10-30T10:58:30.955Z,6.70
2022-10-30T11:01:39.499Z,6.28
2022-10-30T11:04:49.043Z,6.93
2022-10-30T11:07:52.482Z,7.43
2022-10-30T11:10:59.453Z,5.65
2022-10-30T11:14:02.864Z,6.03
2022-10-30T11:17:16.657Z,5.35
2022-10-30T11:20:29.273Z,4.85
2022-10-30T11:23:39.816Z,4.55
2022-10-30T11:26:44.146Z,4.38
2022-10-30T11:29:54.036Z,4.88
2022-10-30T11:32:57.816Z,4.05
2022-10-30T11:36:15.522Z,4.05
2022-10-30T11:39:21.482Z,3.78
2022-10-30T11:42:24.989Z,3.42
2022-10-30T11:45:30.937Z,3.38
2022-10-30T11:48:36.232Z,3.50
2022-10-30T11:51:44.429Z,3.67
2022-10-30T11:54:52.259Z,3.70
2022-10-30T11:57:58.822Z,4.00
2022-10-30T12:01:05.344Z,3.97
2022-10-30T12:04:17.238Z,4.15
2022-10-30T12:07:27.986Z,3.90
2022-10-30T12:10:31.962Z,4.50
2022-10-30T12:13:40.062Z,4.57
2022-10-30T12:16:48.013Z,4.20
2022-10-30T12:19:54.576Z,4.38
2022-10-30T12:22:59.528Z,3.90
2022-10-30T12:26:10.179Z,4.43
2022-10-30T12:29:18.513Z,5.18
2022-10-30T12:32:24.478Z,4.82
2022-10-30T12:35:40.565Z,5.95
2022-10-30T12:38:48.752Z,6.70
2022-10-30T12:42:00.698Z,6.55
2022-10-30T12:45:15.975Z,5.78
2022-10-30T12:48:27.993Z,5.78
2022-10-30T12:51:36.896Z,5.70
2022-10-30T12:54:48.855Z,5.57
2022-10-30T12:58:03.230Z,5.75
2022-10-30T13:01:17.241Z,5.70
2022-10-30T13:04:24.080Z,5.65
2022-10-30T13:07:34.398Z,6.88
2022-10-30T13:10:43.840Z,6.65
2022-10-30T13:13:49.733Z,8.27
2022-10-30T13:16:54.335Z,9.13
2022-10-30T13:19:57.996Z,7.55
2022-10-30T13:23:06.880Z,6.30
2022-10-30T13:26:20.419Z,6.05
2022-10-30T13:29:30.559Z,6.80
2022-10-30T13:32:46.929Z,6.72
2022-10-30T13:35:55.643Z,9.20
2022-10-30T13:39:04.468Z,10.20
2022-10-30T13:42:23.418Z,10.63
2022-10-30T13:46:07.314Z,10.63
2022-10-30T13:49:24.559Z,10.50
2022-10-30T13:52:32.088Z,8.20
2022-10-30T13:55:36.983Z,8.82
2022-10-30T13:58:48.019Z,7.90
2022-10-30T14:02:01.504Z,7.05
2022-10-30T14:05:16.674Z,8.30
2022-10-30T14:11:35.114Z,7.00
2022-10-30T14:14:48.429Z,8.05
2022-10-30T14:18:25.921Z,9.27
2022-10-30T14:21:45.323Z,9.30
2022-10-30T14:24:48.812Z,4.53
2022-10-30T14:27:57.373Z,6.20
2022-10-30T14:31:07.535Z,5.43
2022-10-30T14:34:41.904Z,5.60
2022-10-30T14:37:58.486Z,5.63
2022-10-30T14:41:34.239Z,5.18
2022-10-30T14:44:51.284Z,5.20
2022-10-30T14:48:03.229Z,5.40
2022-10-30T14:51:16.958Z,5.82
2022-10-30T14:54:27.473Z,5.65
2022-10-30T14:57:48.833Z,5.75
2022-10-30T15:00:55.154Z,7.18
2022-10-30T15:04:13.486Z,6.45
2022-10-30T15:07:25.246Z,7.00
2022-10-30T15:10:34.280Z,7.47
2022-10-30T15:13:37.771Z,8.27
2022-10-30T15:16:42.575Z,7.03
2022-10-30T15:19:47.828Z,7.43
2022-10-30T15:22:54.368Z,9.23
2022-10-30T15:26:03.644Z,9.32
2022-10-30T15:29:17.977Z,11.23
2022-10-30T15:32:23.201Z,9.73
2022-10-30T15:35:29.991Z,10.35
2022-10-30T15:38:35.092Z,10.77
2022-10-30T15:41:44.058Z,10.35
2022-10-30T15:44:48.226Z,13.10
2022-10-30T15:47:59.868Z,12.55
2022-10-30T15:51:06.696Z,13.15
2022-10-30T15:54:14.358Z,12.88
2022-10-30T15:57:56.993Z,12.55
2022-10-30T16:00:55.358Z,12.15
2022-10-30T16:03:59.050Z,12.73
2022-10-30T16:07:17.667Z,19.38
2022-10-30T16:10:21.168Z,27.80
2022-10-30T16:13:30.225Z,14.63
2022-10-30T16:16:33.710Z,18.23
2022-10-30T16:19:40.915Z,16.70
2022-10-30T16:22:45.572Z,27.33
2022-10-30T16:25:49.382Z,16.80
2022-10-30T16:28:52.794Z,17.35
2022-10-30T16:31:56.646Z,15.57
2022-10-30T16:35:02.648Z,16.70
2022-10-30T16:38:07.541Z,17.35
2022-10-30T16:41:13.552Z,17.60
2022-10-30T16:44:20.623Z,17.58
2022-10-30T16:47:26.543Z,18.90
2022-10-30T16:50:36.108Z,18.27
2022-10-30T16:53:40.912Z,13.87
2022-10-30T16:56:48.988Z,18.17
2022-10-30T16:59:53.432Z,17.30
2022-10-30T17:02:59.176Z,17.27
2022-10-30T17:06:05.206Z,18.73
2022-10-30T17:09:12.201Z,21.38
2022-10-30T17:12:20.373Z,18.88
2022-10-30T17:15:24.899Z,19.23
2022-10-30T17:18:33.370Z,18.75
2022-10-30T17:21:40.695Z,20.08
2022-10-30T17:24:47.552Z,19.13
2022-10-30T17:27:53.580Z,19.52
2022-10-30T17:30:57.068Z,19.67
2022-10-30T17:34:15.868Z,23.95
2022-10-30T17:37:19.484Z,52.97
2022-10-30T17:40:24.789Z,25.25
2022-10-30T17:43:31.164Z,27.13
2022-10-30T17:46:34.678Z,26.05
2022-10-30T17:49:38.243Z,24.98
2022-10-30T17:52:42.284Z,24.70
2022-10-30T17:55:51.648Z,24.90
2022-10-30T17:58:57.616Z,25.35
2022-10-30T18:02:01.278Z,25.75
2022-10-30T18:05:12.416Z,27.90
2022-10-30T18:08:15.862Z,27.48
2022-10-30T18:11:22.935Z,27.55
2022-10-30T18:14:28.467Z,29.27
2022-10-30T18:17:31.913Z,27.27
2022-10-30T18:20:35.554Z,31.27
2022-10-30T18:23:51.854Z,32.35
2022-10-30T18:27:05.660Z,30.48
2022-10-30T18:30:10.496Z,33.53
2022-10-30T18:33:14.007Z,31.98
2022-10-30T18:36:19.037Z,29.63
2022-10-30T18:39:22.591Z,30.02
2022-10-30T18:42:27.226Z,30.35
2022-10-30T18:45:34.194Z,29.60
2022-10-30T18:48:37.455Z,29.30
2022-10-30T18:51:41.067Z,27.20
2022-10-30T18:54:44.552Z,27.67
2022-10-30T18:57:50.166Z,27.20
2022-10-30T19:04:21.733Z,27.75
2022-10-30T19:07:25.554Z,26.25
2022-10-30T19:10:34.444Z,24.63
2022-10-30T19:13:40.213Z,24.30
2022-10-30T19:16:43.859Z,23.50
2022-10-30T19:19:47.323Z,26.67
2022-10-30T19:22:50.546Z,24.95
2022-10-30T19:25:54.515Z,25.60
2022-10-30T19:28:59.577Z,26.63
2022-10-30T19:32:03.057Z,22.42
2022-10-30T19:35:07.211Z,23.33
2022-10-30T19:38:11.664Z,24.50
2022-10-30T19:41:15.107Z,25.50
2022-10-30T19:44:19.864Z,25.92
2022-10-30T19:47:23.824Z,28.25
2022-10-30T19:50:29.973Z,28.42
2022-10-30T19:53:33.599Z,27.90
2022-10-30T19:56:37.994Z,28.05
2022-10-30T19:59:44.017Z,26.52
2022-10-30T20:02:48.075Z,29.20
2022-10-30T20:05:56.790Z,30.17
2022-10-30T20:09:02.517Z,31.63
2022-10-30T20:12:06.941Z,31.30
2022-10-30T20:15:16.118Z,31.95
2022-10-30T20:18:21.269Z,33.72
2022-10-30T20:21:28.464Z,32.80
2022-10-30T20:24:32.680Z,33.22
2022-10-30T20:27:36.500Z,34.30
2022-10-30T20:30:41.412Z,34.33
2022-10-30T20:33:46.725Z,32.80
2022-10-30T20:36:50.485Z,32.45
2022-10-30T20:39:53.838Z,39.92
2022-10-30T20:43:02.667Z,45.10
2022-10-30T20:46:11.148Z,43.83
2022-10-30T20:49:17.729Z,46.20
2022-10-30T20:52:21.975Z,45.88
2022-10-30T20:55:25.418Z,44.55
2022-10-30T20:58:28.972Z,45.05
2022-10-30T21:01:34.005Z,45.08
2022-10-30T21:04:37.648Z,44.17
2022-10-30T21:07:41.030Z,43.50
2022-10-30T21:10:44.723Z,44.85
2022-10-30T21:13:48.147Z,41.60
2022-10-30T21:16:53.355Z,40.72
2022-10-30T21:19:56.765Z,43.10
2022-10-30T21:23:00.558Z,41.88
2022-10-30T21:26:05.871Z,44.38
2022-10-30T21:29:09.951Z,43.42
2022-10-30T21:32:15.663Z,45.40
2022-10-30T21:35:19.676Z,45.08
2022-10-30T21:38:23.065Z,44.25
2022-10-30T21:41:26.598Z,43.08
2022-10-30T21:44:30.145Z,43.20
2022-10-30T21:47:34.867Z,42.67
2022-10-30T21:50:38.144Z,43.72
2022-10-30T21:53:42.051Z,45.00
2022-10-30T21:56:45.694Z,42.05
2022-10-30T21:59:49.318Z,41.25
2022-10-30T22:02:56.224Z,40.60
2022-10-30T22:06:00.018Z,42.40
2022-10-30T22:09:03.774Z,41.05
2022-10-30T22:12:07.779Z,40.55
2022-10-30T22:15:11.575Z,37.17
2022-10-30T22:18:16.404Z,38.30
2022-10-30T22:21:20.027Z,41.60
2022-10-30T22:24:23.280Z,41.50
2022-10-30T22:27:27.396Z,40.28
2022-10-30T22:30:30.779Z,39.55
2022-10-30T22:33:37.274Z,38.47
2022-10-30T22:36:40.652Z,37.75
2022-10-30T22:39:43.965Z,35.03
2022-10-30T22:42:47.954Z,34.85
2022-10-30T22:45:54.907Z,33.83
2022-10-30T22:48:59.955Z,34.58
2022-10-30T22:52:03.267Z,34.97
2022-10-30T22:55:07.486Z,35.83
2022-10-30T22:58:10.830Z,35.17
2022-10-30T23:01:16.076Z,35.58
2022-10-30T23:04:20.840Z,37.95
2022-10-30T23:07:24.383Z,40.80
2022-10-30T23:10:28.574Z,36.60
2022-10-30T23:13:33.047Z,36.10
2022-10-30T23:16:36.462Z,35.33
2022-10-30T23:19:41.205Z,35.75
2022-10-30T23:22:44.458Z,35.15
2022-10-30T23:25:47.688Z,36.60
2022-10-30T23:28:53.354Z,34.88
2022-10-30T23:31:56.837Z,34.97
2022-10-30T23:35:01.429Z,33.70
2022-10-30T23:38:06.246Z,33.22
2022-10-30T23:41:09.843Z,35.53
2022-10-30T23:44:15.511Z,35.33
2022-10-30T23:47:18.827Z,35.83
2022-10-30T23:50:23.519Z,36.13
2022-10-30T23:53:27.050Z,37.33
2022-10-30T23:56:30.560Z,37.22
2022-10-30T23:59:33.810Z,37.20
